createdAt,value
2022-10-14T00:04:37.433Z,1009.1
2022-10-14T00:09:37.426Z,1009.1
2022-10-14T00:14:37.446Z,1009.1
2022-10-14T00:19:37.434Z,1009.1
2022-10-14T00:24:37.445Z,1009.0
2022-10-14T00:29:37.459Z,1009.0
2022-10-14T00:34:37.448Z,1008.9
2022-10-14T00:39:37.437Z,1008.8
2022-10-14T00:44:37.451Z,1008.8
2022-10-14T00:49:37.426Z,1008.7
2022-10-14T00:54:37.439Z,1008.6
2022-10-14T00:59:37.441Z,1008.6
2022-10-14T01:04:37.454Z,1008.5
2022-10-14T01:09:37.435Z,1008.4
2022-10-14T01:14:37.535Z,1008.4
2022-10-14T01:19:37.436Z,1008.3
2022-10-14T01:24:37.454Z,1008.3
2022-10-14T01:29:37.442Z,1008.2
2022-10-14T01:34:37.458Z,1008.2
2022-10-14T01:39:37.469Z,1008.2
2022-10-14T01:44:37.468Z,1008.2
2022-10-14T01:49:37.455Z,1008.0
2022-10-14T01:54:37.462Z,1008.0
2022-10-14T01:59:37.454Z,1007.9
2022-10-14T02:04:37.465Z,1007.8
2022-10-14T02:09:37.460Z,1007.7
2022-10-14T02:14:37.470Z,1007.7
2022-10-14T02:19:37.450Z,1007.5
2022-10-14T02:24:37.458Z,1007.5
2022-10-14T02:29:37.491Z,1007.5
2022-10-14T02:34:37.457Z,1007.4
2022-10-14T02:39:37.453Z,1007.3
2022-10-14T02:44:37.458Z,1007.3
2022-10-14T02:49:37.459Z,1007.2
2022-10-14T02:54:37.464Z,1007.0
2022-10-14T02:59:37.453Z,1007.0
2022-10-14T03:04:37.474Z,1007.0
2022-10-14T03:09:37.457Z,1006.9
2022-10-14T03:14:37.469Z,1006.8
2022-10-14T03:19:37.457Z,1006.7
2022-10-14T03:24:37.460Z,1006.5
2022-10-14T03:29:37.458Z,1006.5
2022-10-14T03:34:37.510Z,1006.5
2022-10-14T03:39:37.454Z,1006.4
2022-10-14T03:44:37.452Z,1006.3
2022-10-14T03:49:37.464Z,1006.3
2022-10-14T03:54:37.519Z,1006.3
2022-10-14T03:59:37.458Z,1006.4
2022-10-14T04:04:37.471Z,1006.4
2022-10-14T04:09:37.459Z,1006.4
2022-10-14T04:14:37.473Z,1006.3
2022-10-14T04:19:37.486Z,1006.2
2022-10-14T04:24:37.477Z,1006.2
2022-10-14T04:29:37.462Z,1006.1
2022-10-14T04:34:37.505Z,1006.1
2022-10-14T04:39:37.474Z,1006.1
2022-10-14T04:44:37.484Z,1006.0
2022-10-14T04:49:37.511Z,1006.0
2022-10-14T04:54:37.487Z,1006.0
2022-10-14T04:59:37.470Z,1006.0
2022-10-14T05:04:37.571Z,1005.9
2022-10-14T05:09:37.485Z,1005.9
2022-10-14T05:14:37.493Z,1005.9
2022-10-14T05:19:37.494Z,1005.8
2022-10-14T05:24:37.505Z,1005.8
2022-10-14T05:29:37.488Z,1005.8
2022-10-14T05:34:37.494Z,1005.7
2022-10-14T05:39:37.490Z,1005.7
2022-10-14T05:44:37.515Z,1005.6
2022-10-14T05:49:37.497Z,1005.5
2022-10-14T05:54:37.499Z,1005.5
2022-10-14T05:59:37.514Z,1005.4
2022-10-14T06:04:37.498Z,1005.3
2022-10-14T06:09:37.519Z,1005.3
2022-10-14T06:14:37.540Z,1005.4
2022-10-14T06:19:37.533Z,1005.3
2022-10-14T06:24:37.518Z,1005.3
2022-10-14T06:29:37.523Z,1005.2
2022-10-14T06:34:37.514Z,1005.3
2022-10-14T06:39:37.516Z,1005.3
2022-10-14T06:44:37.501Z,1005.3
2022-10-14T06:49:37.519Z,1005.2
2022-10-14T06:54:39.583Z,1005.2
2022-10-14T06:59:37.523Z,1005.1
2022-10-14T07:04:37.524Z,1005.1
2022-10-14T07:09:37.625Z,1005.0
2022-10-14T07:14:37.531Z,1005.1
2022-10-14T07:19:37.527Z,1005.1
2022-10-14T07:24:37.544Z,1005.1
2022-10-14T07:29:37.525Z,1005.1
2022-10-14T07:34:37.538Z,1005.2
2022-10-14T07:39:37.543Z,1005.2
2022-10-14T07:44:37.558Z,1005.3
2022-10-14T07:49:37.550Z,1005.3
2022-10-14T07:54:37.555Z,1005.3
2022-10-14T07:59:37.532Z,1005.4
2022-10-14T08:04:38.614Z,1005.4
2022-10-14T08:09:37.706Z,1005.5
2022-10-14T08:14:37.546Z,1005.5
2022-10-14T08:19:37.585Z,1005.5
2022-10-14T08:24:37.553Z,1005.5
2022-10-14T08:29:37.553Z,1005.4
2022-10-14T08:34:37.585Z,1005.3
2022-10-14T08:39:37.561Z,1005.3
2022-10-14T08:44:37.548Z,1005.3
2022-10-14T08:49:37.584Z,1005.3
2022-10-14T08:54:37.590Z,1005.3
2022-10-14T08:59:37.562Z,1005.2
2022-10-14T09:04:37.571Z,1005.1
2022-10-14T09:09:37.562Z,1005.2
2022-10-14T09:14:37.582Z,1005.1
2022-10-14T09:19:37.578Z,1005.1
2022-10-14T09:24:37.581Z,1005.0
2022-10-14T09:29:37.577Z,1005.0
2022-10-14T09:34:37.574Z,1005.0
2022-10-14T09:39:37.578Z,1005.0
2022-10-14T09:44:37.560Z,1004.9
2022-10-14T09:49:37.574Z,1004.9
2022-10-14T09:54:37.631Z,1004.8
2022-10-14T09:59:37.593Z,1004.8
2022-10-14T10:04:37.592Z,1004.7
2022-10-14T10:09:37.575Z,1004.7
2022-10-14T10:14:37.594Z,1004.7
2022-10-14T10:19:37.581Z,1004.6
2022-10-14T10:24:37.608Z,1004.5
2022-10-14T10:29:37.601Z,1004.4
2022-10-14T10:34:37.593Z,1004.4
2022-10-14T10:39:37.587Z,1004.4
2022-10-14T10:44:37.604Z,1004.3
2022-10-14T10:49:37.598Z,1004.3
2022-10-14T10:54:37.620Z,1004.2
2022-10-14T10:59:37.627Z,1004.2
2022-10-14T11:04:37.600Z,1004.0
2022-10-14T11:09:37.607Z,1004.0
2022-10-14T11:14:37.615Z,1003.9
2022-10-14T11:19:37.612Z,1003.9
2022-10-14T11:24:37.559Z,1003.8
2022-10-14T11:29:37.628Z,1003.8
2022-10-14T11:34:37.610Z,1003.8
2022-10-14T11:39:37.600Z,1003.7
2022-10-14T11:44:37.677Z,1003.6
2022-10-14T11:49:37.611Z,1003.6
2022-10-14T11:54:37.619Z,1003.6
2022-10-14T11:59:37.622Z,1003.5
2022-10-14T12:04:37.618Z,1003.4
2022-10-14T12:14:37.617Z,1003.4
2022-10-14T12:19:37.610Z,1003.4
2022-10-14T12:24:37.629Z,1003.4
2022-10-14T12:29:37.620Z,1003.4
2022-10-14T12:34:37.615Z,1003.4
2022-10-14T12:39:37.613Z,1003.4
2022-10-14T12:44:37.625Z,1003.4
2022-10-14T12:49:37.607Z,1003.4
2022-10-14T12:54:37.627Z,1003.3
2022-10-14T12:59:37.633Z,1003.2
2022-10-14T13:04:37.631Z,1003.1
2022-10-14T13:09:37.622Z,1003.2
2022-10-14T13:14:37.641Z,1003.1
2022-10-14T13:19:37.645Z,1002.9
2022-10-14T13:24:37.630Z,1002.9
2022-10-14T13:29:37.642Z,1002.9
2022-10-14T13:34:37.614Z,1002.8
2022-10-14T13:39:37.649Z,1002.8
2022-10-14T13:44:37.733Z,1002.6
2022-10-14T13:49:37.662Z,1002.6
2022-10-14T13:54:37.653Z,1002.6
2022-10-14T13:59:43.962Z,1002.6
2022-10-14T14:04:37.651Z,1002.6
2022-10-14T14:09:37.656Z,1002.5
2022-10-14T14:14:37.683Z,1002.4
2022-10-14T14:19:37.624Z,1002.3
2022-10-14T14:24:37.638Z,1002.2
2022-10-14T14:29:37.632Z,1002.3
2022-10-14T14:34:37.633Z,1002.3
2022-10-14T14:39:37.645Z,1002.3
2022-10-14T14:44:37.637Z,1002.3
2022-10-14T14:49:37.614Z,1002.2
2022-10-14T14:54:37.627Z,1002.2
2022-10-14T14:59:37.625Z,1002.2
2022-10-14T15:04:37.632Z,1002.2
2022-10-14T15:09:37.643Z,1002.1
2022-10-14T15:14:37.607Z,1002.0
2022-10-14T15:19:38.714Z,1002.1
2022-10-14T15:24:37.633Z,1002.1
2022-10-14T15:29:37.632Z,1002.2
2022-10-14T15:34:37.621Z,1002.2
2022-10-14T15:39:37.627Z,1002.2
2022-10-14T15:44:37.642Z,1002.3
2022-10-14T15:49:37.630Z,1002.3
2022-10-14T15:54:37.631Z,1002.3
2022-10-14T15:59:37.627Z,1002.4
2022-10-14T16:04:45.426Z,1002.5
2022-10-14T16:09:37.635Z,1002.5
2022-10-14T16:14:37.640Z,1002.5
2022-10-14T16:19:37.627Z,1002.5
2022-10-14T16:24:37.640Z,1002.4
2022-10-14T16:29:37.637Z,1002.4
2022-10-14T16:34:37.641Z,1002.4
2022-10-14T16:39:37.637Z,1002.4
2022-10-14T16:44:37.656Z,1002.4
2022-10-14T16:49:37.656Z,1002.4
2022-10-14T16:54:37.635Z,1002.4
2022-10-14T16:59:37.645Z,1002.4
2022-10-14T17:04:37.638Z,1002.4
2022-10-14T17:09:37.630Z,1002.7
2022-10-14T17:14:37.673Z,1002.7
2022-10-14T17:19:37.656Z,1002.7
2022-10-14T17:24:37.646Z,1002.6
2022-10-14T17:29:37.645Z,1002.7
2022-10-14T17:34:37.664Z,1002.8
2022-10-14T17:39:37.639Z,1002.9
2022-10-14T17:44:40.098Z,1002.9
2022-10-14T17:49:37.655Z,1002.9
2022-10-14T17:54:37.653Z,1002.9
2022-10-14T17:59:37.654Z,1002.8
2022-10-14T18:04:37.663Z,1002.7
2022-10-14T18:09:37.651Z,1002.6
2022-10-14T18:14:37.660Z,1002.7
2022-10-14T18:19:37.662Z,1002.8
2022-10-14T18:24:37.650Z,1002.7
2022-10-14T18:29:37.688Z,1002.8
2022-10-14T18:34:37.638Z,1002.8
2022-10-14T18:39:37.656Z,1002.8
2022-10-14T18:44:37.663Z,1002.9
2022-10-14T18:49:40.044Z,1002.9
2022-10-14T18:54:37.646Z,1002.9
2022-10-14T18:59:37.651Z,1002.9
2022-10-14T19:04:37.664Z,1002.9
2022-10-14T19:09:37.668Z,1002.9
2022-10-14T19:14:37.664Z,1002.9
2022-10-14T19:19:37.662Z,1002.8
2022-10-14T19:24:37.663Z,1002.7
2022-10-14T19:29:37.657Z,1002.8
2022-10-14T19:34:37.689Z,1002.7
2022-10-14T19:39:37.661Z,1002.8
2022-10-14T19:44:37.665Z,1002.6
2022-10-14T19:49:37.665Z,1002.6
2022-10-14T19:54:37.674Z,1002.6
2022-10-14T19:59:37.660Z,1002.5
2022-10-14T20:04:37.671Z,1002.6
2022-10-14T20:09:37.678Z,1002.6
2022-10-14T20:14:37.673Z,1002.5
2022-10-14T20:19:37.666Z,1002.5
2022-10-14T20:24:37.713Z,1002.6
2022-10-14T20:29:37.664Z,1002.7
2022-10-14T20:34:37.688Z,1002.7
2022-10-14T20:39:37.685Z,1002.7
2022-10-14T20:49:37.677Z,1002.6
2022-10-14T20:54:37.696Z,1002.4
2022-10-14T20:59:37.689Z,1002.4
2022-10-14T21:04:37.682Z,1002.4
2022-10-14T21:09:37.692Z,1002.4
2022-10-14T21:14:37.676Z,1002.4
2022-10-14T21:19:37.688Z,1002.4
2022-10-14T21:24:37.681Z,1002.3
2022-10-14T21:29:37.691Z,1002.3
2022-10-14T21:34:37.692Z,1002.3
2022-10-14T21:39:37.693Z,1002.4
2022-10-14T21:44:37.677Z,1002.3
2022-10-14T21:49:37.692Z,1002.3
2022-10-14T21:54:37.696Z,1002.2
2022-10-14T21:59:37.695Z,1002.1
2022-10-14T22:04:38.426Z,1002.1
2022-10-14T22:09:37.697Z,1002.0
2022-10-14T22:14:37.697Z,1002.0
2022-10-14T22:19:37.705Z,1001.9
2022-10-14T22:24:37.696Z,1001.9
2022-10-14T22:29:37.696Z,1001.8
2022-10-14T22:34:37.697Z,1001.8
2022-10-14T22:39:37.715Z,1001.8
2022-10-14T22:44:37.699Z,1001.8
2022-10-14T22:49:37.700Z,1001.8
2022-10-14T22:54:37.693Z,1001.8
2022-10-14T22:59:37.699Z,1001.8
2022-10-14T23:04:37.697Z,1001.8
2022-10-14T23:09:37.760Z,1001.6
2022-10-14T23:14:37.702Z,1001.5
2022-10-14T23:19:37.711Z,1001.5
2022-10-14T23:24:37.696Z,1001.4
2022-10-14T23:29:37.712Z,1001.4
2022-10-14T23:34:37.699Z,1001.3
2022-10-14T23:39:37.713Z,1001.3
2022-10-14T23:44:37.709Z,1001.3
2022-10-14T23:49:37.717Z,1001.2
2022-10-14T23:54:37.735Z,1001.2
2022-10-14T23:59:37.721Z,1001.1
